Time;durP1;ratioP1;P1;durP2;ratioP2;P2;SDS_P1;SDS_P2;PMS_P1;PMS_P2;Temp;Humidity;BMP_temperature;BMP_pressure;BME280_temperature;BME280_humidity;BME280_pressure;Samples;Min_cycle;Max_cycle;Signal;HPM_P1;HPM_P2
2022/01/24 00:01:20;;;;;;;23.30;16.50;;;;;;;;;;5154743;27;20501;-79
2022/01/24 00:03:47;;;;;;;25.75;18.50;;;;;;;;;;5148203;27;20066;-79
2022/01/24 00:06:15;;;;;;;28.05;20.23;;;;;;;;;;5134118;27;20043;-79
2022/01/24 00:08:42;;;;;;;29.40;20.33;;;;;;;;;;5150630;27;20042;-78
2022/01/24 00:11:15;;;;;;;29.45;21.38;;;;;;;;;;5154600;27;20043;-78
2022/01/24 00:26:51;;;;;;;28.58;20.38;;;;;;;;;;5149144;27;20475;-79
2022/01/24 00:29:18;;;;;;;29.52;20.88;;;;;;;;;;5153507;27;20123;-79
2022/01/24 00:31:45;;;;;;;28.00;20.00;;;;;;;;;;5154322;27;20052;-79
2022/01/24 00:34:11;;;;;;;29.95;20.90;;;;;;;;;;5153278;27;20074;-79
2022/01/24 00:36:38;;;;;;;29.88;20.80;;;;;;;;;;5134432;27;20038;-79
2022/01/24 00:39:06;;;;;;;26.98;20.95;;;;;;;;;;5153938;27;20107;-79
2022/01/24 00:41:39;;;;;;;30.95;20.63;;;;;;;;;;5147650;27;20075;-79
2022/01/24 00:44:38;;;;;;;33.03;22.77;;;;;;;;;;5103270;28;20395;-79
2022/01/24 00:47:01;;;;;;;29.55;21.27;;;;;;;;;;5139026;27;20042;-79
2022/01/24 00:49:49;;;;;;;34.05;23.27;;;;;;;;;;5151868;27;20107;-79
2022/01/24 00:55:01;;;;;;;36.50;24.52;;;;;;;;;;5146618;27;20051;-79
2022/01/24 00:57:27;;;;;;;33.97;23.52;;;;;;;;;;5145609;27;20505;-78
2022/01/24 00:59:53;;;;;;;33.45;22.92;;;;;;;;;;5133504;27;20123;-78
2022/01/24 01:02:20;;;;;;;30.25;22.77;;;;;;;;;;5137525;27;20041;-79
2022/01/24 01:07:25;;;;;;;32.22;22.50;;;;;;;;;;5144115;27;20047;-78
2022/01/24 01:18:14;;;;;;;29.50;22.38;;;;;;;;;;5137767;27;20108;-77
2022/01/24 01:23:26;;;;;;;33.22;22.98;;;;;;;;;;5153819;27;20127;-78
2022/01/24 01:25:53;;;;;;;31.00;20.95;;;;;;;;;;5139615;27;20035;-77
2022/01/24 01:28:21;;;;;;;24.20;18.77;;;;;;;;;;5139967;27;20128;-79
2022/01/24 01:30:51;;;;;;;24.67;19.15;;;;;;;;;;5123062;28;20053;-79
2022/01/24 01:33:28;;;;;;;26.05;18.67;;;;;;;;;;5141669;27;20039;-79
2022/01/24 01:36:10;;;;;;;26.33;19.00;;;;;;;;;;5153947;27;20095;-79
2022/01/24 01:39:01;;;;;;;25.40;19.63;;;;;;;;;;5115486;28;20039;-79
2022/01/24 01:57:57;;;;;;;24.33;18.20;;;;;;;;;;5136411;27;20039;-79
2022/01/24 02:00:24;;;;;;;26.25;18.52;;;;;;;;;;5125304;27;20080;-79
2022/01/24 02:02:50;;;;;;;24.83;18.05;;;;;;;;;;5115809;28;20047;-78
2022/01/24 02:05:16;;;;;;;23.77;18.27;;;;;;;;;;5116047;28;20047;-78
2022/01/24 02:07:49;;;;;;;22.40;17.17;;;;;;;;;;5148568;27;20070;-79
2022/01/24 02:10:16;;;;;;;23.75;17.80;;;;;;;;;;5142766;27;20043;-79
2022/01/24 02:12:42;;;;;;;28.65;19.50;;;;;;;;;;5147585;27;20045;-79
2022/01/24 02:15:10;;;;;;;22.70;16.63;;;;;;;;;;5156787;27;20043;-78
2022/01/24 02:18:28;;;;;;;23.80;16.38;;;;;;;;;;5154543;27;20476;-78
2022/01/24 02:21:05;;;;;;;23.85;16.45;;;;;;;;;;5120465;27;20075;-78
2022/01/24 02:25:57;;;;;;;20.98;15.43;;;;;;;;;;5136743;27;20096;-78
2022/01/24 02:28:25;;;;;;;19.95;15.73;;;;;;;;;;5135871;27;20122;-79
2022/01/24 02:33:19;;;;;;;29.10;19.58;;;;;;;;;;5137956;27;20050;-78
2022/01/24 02:35:46;;;;;;;32.38;20.17;;;;;;;;;;5155610;27;20488;-79
2022/01/24 02:38:46;;;;;;;24.98;16.50;;;;;;;;;;5136439;27;20046;-79
2022/01/24 02:49:14;;;;;;;19.27;14.77;;;;;;;;;;5135576;27;20129;-78
2022/01/24 02:51:47;;;;;;;19.20;15.80;;;;;;;;;;5152476;27;20039;-78
2022/01/24 02:54:31;;;;;;;20.42;14.77;;;;;;;;;;5130670;27;20381;-78
2022/01/24 02:56:58;;;;;;;21.33;16.70;;;;;;;;;;5114610;28;20618;-78
2022/01/24 02:59:25;;;;;;;22.08;16.05;;;;;;;;;;5120169;27;20039;-78
2022/01/24 03:01:51;;;;;;;21.17;15.80;;;;;;;;;;5117743;27;20077;-78
2022/01/24 03:04:17;;;;;;;19.98;15.52;;;;;;;;;;5131548;27;20081;-78
2022/01/24 03:06:44;;;;;;;21.05;14.95;;;;;;;;;;5136008;27;20121;-78
2022/01/24 03:09:11;;;;;;;20.88;15.00;;;;;;;;;;5134904;27;20061;-78
2022/01/24 03:14:25;;;;;;;20.52;14.68;;;;;;;;;;5134819;27;20069;-79
2022/01/24 03:16:51;;;;;;;19.15;14.73;;;;;;;;;;5134778;27;20058;-79
2022/01/24 03:19:17;;;;;;;19.77;14.90;;;;;;;;;;5134807;27;20383;-78
2022/01/24 03:21:43;;;;;;;20.63;15.55;;;;;;;;;;5116407;27;20047;-79
2022/01/24 03:24:10;;;;;;;18.33;14.60;;;;;;;;;;5116603;27;20043;-78
2022/01/24 03:26:36;;;;;;;18.48;14.48;;;;;;;;;;5116509;27;20039;-78
2022/01/24 03:29:02;;;;;;;19.38;15.45;;;;;;;;;;5134662;27;20043;-78
2022/01/24 03:31:29;;;;;;;19.83;14.65;;;;;;;;;;5099177;27;20047;-78
2022/01/24 03:33:55;;;;;;;21.48;15.20;;;;;;;;;;5116606;27;20043;-79
2022/01/24 03:36:21;;;;;;;19.33;14.52;;;;;;;;;;5134275;27;20039;-79
2022/01/24 03:38:47;;;;;;;18.35;14.73;;;;;;;;;;5134581;27;20488;-78
2022/01/24 03:41:13;;;;;;;19.98;15.32;;;;;;;;;;5134283;27;20142;-79
2022/01/24 03:43:39;;;;;;;22.08;15.40;;;;;;;;;;5134341;27;20042;-79
2022/01/24 03:46:27;;;;;;;19.20;14.45;;;;;;;;;;5134318;27;20062;-78
2022/01/24 03:48:57;;;;;;;19.60;14.75;;;;;;;;;;5116224;27;20537;-78
2022/01/24 03:51:24;;;;;;;21.02;16.02;;;;;;;;;;5116235;27;20433;-78
2022/01/24 03:53:50;;;;;;;22.00;15.60;;;;;;;;;;5116028;27;20126;-79
2022/01/24 03:56:17;;;;;;;20.02;14.75;;;;;;;;;;5134147;27;20042;-79
2022/01/24 03:58:44;;;;;;;19.13;15.20;;;;;;;;;;5134084;27;20047;-78
2022/01/24 04:01:10;;;;;;;18.60;14.48;;;;;;;;;;5133848;27;20054;-77
2022/01/24 04:03:37;;;;;;;19.77;14.48;;;;;;;;;;5134190;27;20125;-79
2022/01/24 04:06:07;;;;;;;20.98;15.82;;;;;;;;;;5133693;27;20480;-79
2022/01/24 04:08:33;;;;;;;22.75;17.38;;;;;;;;;;5115900;27;20058;-78
2022/01/24 04:11:00;;;;;;;20.67;16.35;;;;;;;;;;5133965;27;20047;-79
2022/01/24 04:23:52;;;;;;;24.13;18.45;;;;;;;;;;5115303;27;20043;-79
2022/01/24 04:26:19;;;;;;;23.45;17.50;;;;;;;;;;5115322;27;20463;-78
2022/01/24 04:28:45;;;;;;;23.17;17.98;;;;;;;;;;5133806;27;20043;-79
2022/01/24 04:31:11;;;;;;;24.52;17.83;;;;;;;;;;5115498;27;20054;-79
2022/01/24 04:33:37;;;;;;;25.50;18.90;;;;;;;;;;5133704;27;20035;-79
2022/01/24 04:36:03;;;;;;;24.25;18.85;;;;;;;;;;5133684;27;20468;-79
2022/01/24 04:38:29;;;;;;;24.02;19.02;;;;;;;;;;5133394;27;20404;-79
2022/01/24 04:41:00;;;;;;;25.95;19.45;;;;;;;;;;5133644;27;20047;-79
2022/01/24 04:51:40;;;;;;;27.52;20.42;;;;;;;;;;5133317;28;20464;-79
2022/01/24 04:56:34;;;;;;;25.38;19.85;;;;;;;;;;5133504;28;20535;-79
2022/01/24 04:59:00;;;;;;;26.05;19.40;;;;;;;;;;5133277;28;20082;-79
2022/01/24 05:01:26;;;;;;;28.92;20.70;;;;;;;;;;5133333;28;20175;-79
2022/01/24 05:03:53;;;;;;;25.38;19.23;;;;;;;;;;5115244;28;20419;-78
2022/01/24 05:06:19;;;;;;;24.55;18.48;;;;;;;;;;5133436;28;20050;-79
2022/01/24 05:08:45;;;;;;;24.27;18.70;;;;;;;;;;5114963;28;20043;-79
2022/01/24 05:11:17;;;;;;;26.80;19.98;;;;;;;;;;5133275;28;20383;-79
2022/01/24 05:24:24;;;;;;;25.92;20.17;;;;;;;;;;5136945;27;20047;-78
2022/01/24 05:26:50;;;;;;;27.00;20.55;;;;;;;;;;5137058;27;20445;-79
2022/01/24 05:29:16;;;;;;;28.17;20.83;;;;;;;;;;5136941;27;20043;-79
2022/01/24 05:31:42;;;;;;;27.40;19.75;;;;;;;;;;5118624;27;20047;-79
2022/01/24 05:34:08;;;;;;;26.55;20.17;;;;;;;;;;5118523;27;20899;-78
2022/01/24 05:36:34;;;;;;;27.40;20.23;;;;;;;;;;5118599;27;20038;-79
2022/01/24 05:39:01;;;;;;;24.58;18.98;;;;;;;;;;5118164;27;20051;-78
2022/01/24 05:41:27;;;;;;;26.55;20.00;;;;;;;;;;5136925;27;20039;-79
2022/01/24 05:43:53;;;;;;;24.48;19.58;;;;;;;;;;5118378;27;20395;-79
2022/01/24 05:46:20;;;;;;;25.25;19.40;;;;;;;;;;5118497;27;20051;-77
2022/01/24 05:48:46;;;;;;;25.92;19.92;;;;;;;;;;5136699;27;20125;-79
2022/01/24 05:51:12;;;;;;;24.80;19.17;;;;;;;;;;5118150;27;20039;-79
2022/01/24 05:53:38;;;;;;;26.33;20.67;;;;;;;;;;5118181;27;20039;-79
2022/01/24 05:56:04;;;;;;;23.45;18.92;;;;;;;;;;5136338;27;20410;-80
2022/01/24 05:58:30;;;;;;;25.48;19.80;;;;;;;;;;5136509;27;20039;-79
2022/01/24 06:00:56;;;;;;;26.70;20.38;;;;;;;;;;5118033;27;20395;-79
2022/01/24 06:03:22;;;;;;;25.15;18.70;;;;;;;;;;5117982;27;20530;-77
2022/01/24 06:05:49;;;;;;;30.40;22.75;;;;;;;;;;5136186;27;20104;-79
2022/01/24 06:08:15;;;;;;;31.48;24.27;;;;;;;;;;5136248;27;20148;-78
2022/01/24 06:10:41;;;;;;;33.85;25.73;;;;;;;;;;5117759;27;20035;-79
2022/01/24 06:13:07;;;;;;;30.75;23.80;;;;;;;;;;5118023;27;20082;-78
2022/01/24 06:15:34;;;;;;;29.35;22.50;;;;;;;;;;5135951;27;20058;-78
2022/01/24 06:18:00;;;;;;;34.55;24.65;;;;;;;;;;5135949;27;20047;-80
2022/01/24 06:20:26;;;;;;;31.80;24.48;;;;;;;;;;5135971;27;20039;-79
2022/01/24 06:22:52;;;;;;;32.00;24.05;;;;;;;;;;5135663;27;20422;-79
2022/01/24 06:25:23;;;;;;;34.53;24.95;;;;;;;;;;5136205;27;20130;-79
2022/01/24 06:27:49;;;;;;;32.20;25.45;;;;;;;;;;5135856;27;20503;-79
2022/01/24 06:30:15;;;;;;;35.67;25.65;;;;;;;;;;5117362;27;20049;-79
2022/01/24 06:32:41;;;;;;;37.88;29.95;;;;;;;;;;5135704;27;20039;-79
2022/01/24 06:35:08;;;;;;;34.92;25.55;;;;;;;;;;5135679;27;20043;-79
2022/01/24 06:37:35;;;;;;;35.95;27.13;;;;;;;;;;5117433;27;20045;-80
2022/01/24 06:40:01;;;;;;;37.97;27.88;;;;;;;;;;5135708;27;20060;-79
2022/01/24 06:42:27;;;;;;;40.38;29.38;;;;;;;;;;5135459;27;20571;-79
2022/01/24 06:44:54;;;;;;;32.83;24.75;;;;;;;;;;5117549;27;20049;-78
2022/01/24 06:47:24;;;;;;;37.58;27.48;;;;;;;;;;5117233;27;20042;-78
2022/01/24 06:49:50;;;;;;;40.05;29.17;;;;;;;;;;5116987;27;20399;-78
2022/01/24 06:52:16;;;;;;;35.47;26.33;;;;;;;;;;5117350;27;20043;-79
2022/01/24 06:54:43;;;;;;;32.55;24.95;;;;;;;;;;5135468;27;20421;-78
2022/01/24 06:57:11;;;;;;;33.13;25.30;;;;;;;;;;5135540;27;20103;-79
2022/01/24 06:59:38;;;;;;;32.63;24.02;;;;;;;;;;5129288;27;20039;-79
2022/01/24 07:02:05;;;;;;;30.23;22.40;;;;;;;;;;5096565;28;20043;-78
2022/01/24 07:04:31;;;;;;;33.70;24.65;;;;;;;;;;5108281;27;20082;-79
2022/01/24 07:06:57;;;;;;;33.30;25.63;;;;;;;;;;5117341;27;20039;-79
2022/01/24 07:09:23;;;;;;;37.90;28.10;;;;;;;;;;5155046;27;20087;-78
2022/01/24 07:11:51;;;;;;;38.97;28.17;;;;;;;;;;5151883;27;20475;-79
2022/01/24 07:14:17;;;;;;;40.03;29.35;;;;;;;;;;5149636;27;20099;-79
2022/01/24 07:19:29;;;;;;;43.17;31.02;;;;;;;;;;5134941;27;20134;-78
2022/01/24 07:21:56;;;;;;;47.88;33.25;;;;;;;;;;5134794;27;20074;-78
2022/01/24 07:24:22;;;;;;;46.17;32.22;;;;;;;;;;5134918;27;20707;-78
2022/01/24 07:26:48;;;;;;;44.70;31.85;;;;;;;;;;5136080;27;20137;-80
2022/01/24 07:29:14;;;;;;;48.92;33.80;;;;;;;;;;5117725;27;20043;-78
2022/01/24 07:31:40;;;;;;;46.13;32.92;;;;;;;;;;5154956;27;20135;-78
2022/01/24 07:34:06;;;;;;;51.15;34.03;;;;;;;;;;5155397;27;20043;-79
2022/01/24 07:36:32;;;;;;;48.53;32.97;;;;;;;;;;5137196;27;20092;-79
2022/01/24 07:38:58;;;;;;;42.55;29.58;;;;;;;;;;5155175;27;20122;-79
2022/01/24 07:41:30;;;;;;;40.30;29.45;;;;;;;;;;5154417;27;20035;-78
2022/01/24 07:43:56;;;;;;;46.35;30.38;;;;;;;;;;5154518;27;20046;-79
2022/01/24 07:46:22;;;;;;;48.70;33.80;;;;;;;;;;5154093;27;20505;-79
2022/01/24 07:48:49;;;;;;;50.65;34.95;;;;;;;;;;5154397;27;20043;-78
2022/01/24 07:51:15;;;;;;;55.63;38.33;;;;;;;;;;5153941;27;20049;-79
2022/01/24 07:53:41;;;;;;;55.22;37.60;;;;;;;;;;5154826;27;20121;-79
2022/01/24 07:56:08;;;;;;;53.25;34.80;;;;;;;;;;5136268;27;20041;-78
2022/01/24 07:58:34;;;;;;;50.65;34.22;;;;;;;;;;5154342;27;20042;-78
2022/01/24 08:01:00;;;;;;;56.13;37.33;;;;;;;;;;5118624;27;20480;-78
2022/01/24 08:03:27;;;;;;;55.58;38.70;;;;;;;;;;5154489;27;20053;-79
2022/01/24 08:05:53;;;;;;;49.75;32.67;;;;;;;;;;5154801;27;20042;-79
2022/01/24 08:08:19;;;;;;;46.50;32.45;;;;;;;;;;5154700;27;20039;-79
2022/01/24 08:10:45;;;;;;;57.60;38.17;;;;;;;;;;5154615;27;20043;-79
2022/01/24 08:13:13;;;;;;;61.67;41.15;;;;;;;;;;5154484;27;20078;-79
2022/01/24 08:15:39;;;;;;;59.53;40.28;;;;;;;;;;5154339;27;20388;-79
2022/01/24 08:18:06;;;;;;;58.15;39.88;;;;;;;;;;5154603;27;20047;-79
2022/01/24 08:20:33;;;;;;;61.08;40.33;;;;;;;;;;5154322;27;20046;-79
2022/01/24 08:23:00;;;;;;;63.17;41.03;;;;;;;;;;5119069;27;20125;-79
2022/01/24 08:25:26;;;;;;;62.30;42.42;;;;;;;;;;5135879;27;20038;-79
2022/01/24 08:27:52;;;;;;;58.22;39.88;;;;;;;;;;5154126;27;20042;-79
2022/01/24 08:30:20;;;;;;;60.25;40.67;;;;;;;;;;5154275;27;20486;-78
2022/01/24 08:32:46;;;;;;;61.47;41.95;;;;;;;;;;5154202;27;20078;-80
2022/01/24 08:35:13;;;;;;;63.38;41.88;;;;;;;;;;5154392;27;20046;-78
2022/01/24 08:37:39;;;;;;;58.88;40.10;;;;;;;;;;5154243;27;20057;-78
2022/01/24 08:40:06;;;;;;;56.38;37.97;;;;;;;;;;5154060;27;20425;-79
2022/01/24 08:42:39;;;;;;;61.75;39.65;;;;;;;;;;5154140;27;20050;-77
2022/01/24 08:47:35;;;;;;;61.28;41.47;;;;;;;;;;5153924;27;20471;-77
2022/01/24 08:50:01;;;;;;;70.68;45.25;;;;;;;;;;5135554;27;20050;-79
2022/01/24 08:52:27;;;;;;;69.32;44.72;;;;;;;;;;5153965;27;20379;-78
2022/01/24 08:54:54;;;;;;;55.83;38.45;;;;;;;;;;5158273;27;20113;-79
2022/01/24 08:57:25;;;;;;;57.60;38.72;;;;;;;;;;5158567;27;20043;-79
2022/01/24 08:59:51;;;;;;;57.42;39.15;;;;;;;;;;5158132;27;20045;-78
2022/01/24 09:02:17;;;;;;;59.97;41.72;;;;;;;;;;5157990;27;20095;-79
2022/01/24 09:04:43;;;;;;;55.90;39.05;;;;;;;;;;5158246;27;20125;-79
2022/01/24 09:07:10;;;;;;;51.72;36.65;;;;;;;;;;5158048;27;20049;-79
2022/01/24 09:09:36;;;;;;;58.85;39.78;;;;;;;;;;5156924;27;20117;-79
2022/01/24 09:12:04;;;;;;;53.65;38.22;;;;;;;;;;5155752;27;20039;-80
2022/01/24 09:14:30;;;;;;;50.45;34.65;;;;;;;;;;5122145;27;20054;-81
2022/01/24 09:16:56;;;;;;;55.28;35.70;;;;;;;;;;5149332;27;20050;-79
2022/01/24 09:19:23;;;;;;;56.47;38.10;;;;;;;;;;5136647;27;20043;-79
2022/01/24 09:21:50;;;;;;;55.03;38.10;;;;;;;;;;5155540;27;20072;-78
2022/01/24 09:24:16;;;;;;;55.35;36.42;;;;;;;;;;5157509;27;20054;-77
2022/01/24 09:26:42;;;;;;;53.75;36.25;;;;;;;;;;5122192;27;20502;-74
2022/01/24 09:29:08;;;;;;;50.03;34.10;;;;;;;;;;5157777;27;20039;-74
2022/01/24 09:31:35;;;;;;;52.97;36.00;;;;;;;;;;5156761;27;20502;-74
2022/01/24 09:34:01;;;;;;;52.25;36.50;;;;;;;;;;5139104;27;20042;-74
2022/01/24 09:36:27;;;;;;;54.83;38.08;;;;;;;;;;5152001;27;20091;-73
2022/01/24 09:38:53;;;;;;;51.85;35.38;;;;;;;;;;5121778;27;20043;-73
2022/01/24 09:41:19;;;;;;;54.63;37.08;;;;;;;;;;5155745;27;20039;-73
2022/01/24 09:43:45;;;;;;;58.17;39.58;;;;;;;;;;5120746;27;20550;-73
2022/01/24 09:46:12;;;;;;;61.28;41.13;;;;;;;;;;5136497;27;20042;-72
2022/01/24 09:48:39;;;;;;;55.08;38.67;;;;;;;;;;5130435;27;20065;-72
2022/01/24 09:51:05;;;;;;;66.47;43.33;;;;;;;;;;5156832;27;20118;-72
2022/01/24 09:53:32;;;;;;;64.15;43.65;;;;;;;;;;5137240;27;20078;-81
2022/01/24 09:56:03;;;;;;;68.35;44.97;;;;;;;;;;5121397;27;20492;-80
2022/01/24 09:58:29;;;;;;;67.87;44.23;;;;;;;;;;5138231;27;20047;-80
2022/01/24 10:00:56;;;;;;;68.38;44.65;;;;;;;;;;5138171;27;20133;-80
2022/01/24 10:03:24;;;;;;;67.75;45.63;;;;;;;;;;5156530;27;20119;-79
2022/01/24 10:05:54;;;;;;;70.13;45.92;;;;;;;;;;5156812;27;20050;-80
2022/01/24 10:08:23;;;;;;;71.73;47.27;;;;;;;;;;5157122;27;20049;-80
2022/01/24 10:10:57;;;;;;;71.65;45.63;;;;;;;;;;5156689;27;20054;-78
2022/01/24 10:19:10;;;;;;;73.50;47.50;;;;;;;;;;5157005;27;20437;-80
2022/01/24 10:21:41;;;;;;;78.78;48.20;;;;;;;;;;5156811;27;20046;-80
2022/01/24 10:24:08;;;;;;;77.23;48.03;;;;;;;;;;5138523;27;20039;-79
2022/01/24 10:26:34;;;;;;;76.60;48.85;;;;;;;;;;5156546;27;20044;-79
2022/01/24 10:29:00;;;;;;;73.78;46.20;;;;;;;;;;5156616;27;20081;-80
2022/01/24 10:31:30;;;;;;;69.50;45.55;;;;;;;;;;5156416;27;20046;-79
2022/01/24 10:34:05;;;;;;;67.55;44.40;;;;;;;;;;5138071;27;20121;-80
2022/01/24 10:36:38;;;;;;;73.93;47.95;;;;;;;;;;5156402;27;20068;-80
2022/01/24 10:39:14;;;;;;;67.07;45.58;;;;;;;;;;5156181;27;20878;-79
2022/01/24 10:41:56;;;;;;;67.10;46.47;;;;;;;;;;5156385;27;20042;-79
2022/01/24 10:44:32;;;;;;;67.72;43.97;;;;;;;;;;5137981;27;20039;-79
2022/01/24 10:47:31;;;;;;;67.15;44.85;;;;;;;;;;5156185;27;20062;-79
2022/01/24 10:49:58;;;;;;;61.95;43.22;;;;;;;;;;5100108;27;20058;-79
2022/01/24 10:52:26;;;;;;;63.95;45.22;;;;;;;;;;5156109;27;20039;-80
2022/01/24 10:54:53;;;;;;;59.90;43.65;;;;;;;;;;5137853;27;20121;-79
2022/01/24 10:57:27;;;;;;;62.05;45.55;;;;;;;;;;5155947;27;20061;-79
2022/01/24 11:00:08;;;;;;;62.33;45.20;;;;;;;;;;5155774;27;20047;-79
2022/01/24 11:02:35;;;;;;;62.65;44.60;;;;;;;;;;5155756;27;20121;-79
2022/01/24 11:05:15;;;;;;;57.92;42.60;;;;;;;;;;5156016;27;20069;-79
2022/01/24 11:07:52;;;;;;;59.17;42.60;;;;;;;;;;5155845;27;20521;-78
2022/01/24 11:10:19;;;;;;;57.30;43.85;;;;;;;;;;5155514;27;20112;-79
2022/01/24 11:12:45;;;;;;;58.35;43.60;;;;;;;;;;5155889;27;20475;-79
2022/01/24 11:15:12;;;;;;;56.67;43.78;;;;;;;;;;5154583;27;20369;-79
2022/01/24 11:17:39;;;;;;;56.40;43.47;;;;;;;;;;5155235;27;20043;-78
2022/01/24 11:20:06;;;;;;;54.22;43.05;;;;;;;;;;5155546;27;20476;-79
2022/01/24 11:22:40;;;;;;;55.45;42.85;;;;;;;;;;5155322;27;20039;-79
2022/01/24 11:25:08;;;;;;;56.15;43.55;;;;;;;;;;5155754;27;20098;-78
2022/01/24 11:27:34;;;;;;;56.85;43.58;;;;;;;;;;5155652;27;20053;-79
2022/01/24 11:30:03;;;;;;;58.35;44.70;;;;;;;;;;5155517;27;20046;-79
2022/01/24 11:32:29;;;;;;;56.40;44.40;;;;;;;;;;5155463;27;20121;-79
2022/01/24 11:34:56;;;;;;;57.35;44.60;;;;;;;;;;5155488;27;20035;-79
2022/01/24 11:37:32;;;;;;;57.83;45.50;;;;;;;;;;5136779;27;20043;-79
2022/01/24 11:39:58;;;;;;;60.47;46.30;;;;;;;;;;5155040;27;20034;-78
2022/01/24 11:42:33;;;;;;;58.38;45.25;;;;;;;;;;5154920;27;20543;-79
2022/01/24 11:45:04;;;;;;;61.75;47.42;;;;;;;;;;5154865;27;20042;-79
2022/01/24 11:47:31;;;;;;;62.47;45.67;;;;;;;;;;5136861;27;20137;-79
2022/01/24 11:49:58;;;;;;;60.17;46.15;;;;;;;;;;5154763;27;20043;-78
2022/01/24 11:52:31;;;;;;;67.00;48.40;;;;;;;;;;5155074;27;20034;-79
2022/01/24 11:57:35;;;;;;;64.55;48.55;;;;;;;;;;5136349;27;20486;-78
2022/01/24 12:00:05;;;;;;;67.07;50.20;;;;;;;;;;5119038;27;20039;-79
2022/01/24 12:02:38;;;;;;;65.88;49.72;;;;;;;;;;5154558;27;20046;-79
2022/01/24 12:05:18;;;;;;;68.00;50.50;;;;;;;;;;5136321;27;20043;-78
2022/01/24 12:07:45;;;;;;;63.85;48.00;;;;;;;;;;5154492;27;20042;-78
2022/01/24 12:10:22;;;;;;;62.00;47.40;;;;;;;;;;5136036;27;20042;-78
2022/01/24 12:12:51;;;;;;;60.50;45.88;;;;;;;;;;5154308;27;20503;-79
2022/01/24 12:15:36;;;;;;;57.60;43.10;;;;;;;;;;5154399;27;20059;-79
2022/01/24 12:18:02;;;;;;;63.38;45.47;;;;;;;;;;5154634;27;20042;-80
2022/01/24 12:20:31;;;;;;;62.25;47.22;;;;;;;;;;5154321;27;20483;-79
2022/01/24 12:23:16;;;;;;;64.93;49.20;;;;;;;;;;5154517;27;20038;-79
2022/01/24 12:25:54;;;;;;;66.45;48.28;;;;;;;;;;5154392;27;20117;-78
2022/01/24 12:28:24;;;;;;;65.10;48.10;;;;;;;;;;5154146;27;20104;-79
2022/01/24 12:31:00;;;;;;;66.85;49.65;;;;;;;;;;5154402;27;20046;-79
2022/01/24 12:33:30;;;;;;;68.15;50.47;;;;;;;;;;5154192;27;20425;-79
2022/01/24 12:35:56;;;;;;;66.63;49.35;;;;;;;;;;5154566;27;20433;-79
2022/01/24 12:38:22;;;;;;;67.93;48.95;;;;;;;;;;5154388;27;20383;-79
2022/01/24 12:40:49;;;;;;;69.55;49.92;;;;;;;;;;5154296;27;20050;-79
2022/01/24 12:43:30;;;;;;;67.93;49.67;;;;;;;;;;5154035;27;20066;-78
2022/01/24 12:48:41;;;;;;;70.10;48.70;;;;;;;;;;5154322;27;20042;-79
2022/01/24 12:51:07;;;;;;;68.30;50.40;;;;;;;;;;5135636;27;20451;-78
2022/01/24 12:53:38;;;;;;;68.43;48.47;;;;;;;;;;5154266;27;20471;-79
2022/01/24 12:56:11;;;;;;;65.38;47.83;;;;;;;;;;5135565;27;20069;-77
2022/01/24 12:58:39;;;;;;;66.63;48.38;;;;;;;;;;5154471;27;20121;-79
2022/01/24 13:01:22;;;;;;;67.05;48.35;;;;;;;;;;5153915;27;20046;-79
2022/01/24 13:03:55;;;;;;;66.63;50.08;;;;;;;;;;5154021;27;20047;-78
2022/01/24 13:06:21;;;;;;;67.78;48.08;;;;;;;;;;5154031;27;20056;-78
2022/01/24 13:08:53;;;;;;;67.35;47.95;;;;;;;;;;5153790;27;20046;-78
2022/01/24 13:11:20;;;;;;;69.65;48.92;;;;;;;;;;5153894;27;20548;-78
2022/01/24 13:14:04;;;;;;;67.32;48.63;;;;;;;;;;5153879;27;20387;-78
2022/01/24 13:22:27;;;;;;;64.10;47.00;;;;;;;;;;5153788;27;20118;-78
2022/01/24 13:25:03;;;;;;;67.05;46.20;;;;;;;;;;5153795;27;20491;-78
2022/01/24 13:27:38;;;;;;;67.90;48.60;;;;;;;;;;5153716;27;20074;-78
2022/01/24 13:30:06;;;;;;;65.38;46.75;;;;;;;;;;5135111;27;20507;-78
2022/01/24 13:32:49;;;;;;;64.18;46.20;;;;;;;;;;5153729;27;20046;-79
2022/01/24 13:35:21;;;;;;;56.08;42.45;;;;;;;;;;5153898;27;20086;-79
2022/01/24 13:37:47;;;;;;;56.65;42.67;;;;;;;;;;5153701;27;20038;-79
2022/01/24 13:40:14;;;;;;;59.60;44.05;;;;;;;;;;5138070;27;20042;-79
2022/01/24 13:42:40;;;;;;;58.50;45.22;;;;;;;;;;5157627;27;20498;-79
2022/01/24 13:45:07;;;;;;;58.75;44.17;;;;;;;;;;5157388;27;20163;-78
2022/01/24 13:47:33;;;;;;;59.72;43.72;;;;;;;;;;5157523;27;20046;-79
2022/01/24 13:50:00;;;;;;;63.70;44.83;;;;;;;;;;5138888;27;20088;-79
2022/01/24 13:52:28;;;;;;;65.28;46.63;;;;;;;;;;5138775;27;20599;-80
2022/01/24 13:54:54;;;;;;;65.93;46.47;;;;;;;;;;5157272;27;20613;-78
2022/01/24 13:57:20;;;;;;;64.63;46.80;;;;;;;;;;5157258;27;20042;-78
2022/01/24 13:59:47;;;;;;;68.20;47.10;;;;;;;;;;5138779;27;20075;-79
2022/01/24 14:02:22;;;;;;;65.43;46.00;;;;;;;;;;5157108;27;20433;-79
2022/01/24 14:05:03;;;;;;;65.78;46.22;;;;;;;;;;5157115;27;20047;-78
2022/01/24 14:07:34;;;;;;;68.38;48.13;;;;;;;;;;5157027;27;20050;-79
2022/01/24 14:10:02;;;;;;;65.28;46.30;;;;;;;;;;5121932;27;20038;-79
2022/01/24 14:12:38;;;;;;;64.93;45.92;;;;;;;;;;5156933;27;20086;-79
2022/01/24 14:15:10;;;;;;;65.93;46.83;;;;;;;;;;5156743;27;20058;-79
2022/01/24 14:17:46;;;;;;;64.95;46.47;;;;;;;;;;5156876;27;20495;-78
2022/01/24 14:20:15;;;;;;;59.03;43.78;;;;;;;;;;5139621;27;20067;-78
2022/01/24 14:22:49;;;;;;;61.30;44.58;;;;;;;;;;5138123;27;20053;-79
2022/01/24 14:25:22;;;;;;;63.35;45.13;;;;;;;;;;5156695;27;20111;-78
2022/01/24 14:27:56;;;;;;;60.53;45.88;;;;;;;;;;5138085;27;20057;-78
2022/01/24 14:30:32;;;;;;;59.08;43.88;;;;;;;;;;5156654;27;20042;-79
2022/01/24 14:33:00;;;;;;;61.10;44.08;;;;;;;;;;5156565;27;20045;-78
2022/01/24 14:35:27;;;;;;;58.33;41.85;;;;;;;;;;5156584;27;20094;-78
2022/01/24 14:37:54;;;;;;;59.60;42.67;;;;;;;;;;5156640;27;20387;-78
2022/01/24 14:40:45;;;;;;;58.20;43.15;;;;;;;;;;5156326;27;20042;-78
2022/01/24 14:45:59;;;;;;;59.30;44.13;;;;;;;;;;5155992;27;20042;-80
2022/01/24 14:48:25;;;;;;;57.35;43.08;;;;;;;;;;5156432;27;20039;-79
2022/01/24 14:50:51;;;;;;;54.53;42.35;;;;;;;;;;5155902;27;20117;-79
2022/01/24 14:53:17;;;;;;;50.25;40.58;;;;;;;;;;5155964;27;20050;-79
2022/01/24 14:55:44;;;;;;;49.58;38.72;;;;;;;;;;5156290;27;20039;-79
2022/01/24 14:58:10;;;;;;;50.20;40.45;;;;;;;;;;5156179;27;20075;-79
2022/01/24 15:00:36;;;;;;;50.75;39.28;;;;;;;;;;5156107;27;20050;-80
2022/01/24 15:03:03;;;;;;;50.30;38.85;;;;;;;;;;5156072;27;20083;-79
2022/01/24 15:05:29;;;;;;;45.92;37.80;;;;;;;;;;5155983;27;20046;-79
2022/01/24 15:07:55;;;;;;;49.95;38.35;;;;;;;;;;5155683;27;20097;-80
2022/01/24 15:10:21;;;;;;;47.88;37.70;;;;;;;;;;5156002;27;20401;-79
2022/01/24 15:12:52;;;;;;;56.33;45.22;;;;;;;;;;5155375;27;20369;-78
2022/01/24 15:15:21;;;;;;;56.35;45.28;;;;;;;;;;5155205;27;20596;-79
2022/01/24 15:23:58;;;;;;;52.08;42.63;;;;;;;;;;5155589;27;20047;-79
2022/01/24 15:26:03;;;;;;;51.55;41.60;;;;;;;;;;5155476;27;20053;-79
2022/01/24 15:28:31;;;;;;;52.33;41.65;;;;;;;;;;5155217;27;20043;-80
2022/01/24 15:30:57;;;;;;;50.08;41.40;;;;;;;;;;5155521;27;20121;-78
2022/01/24 15:33:23;;;;;;;46.60;39.90;;;;;;;;;;5137150;27;20049;-79
2022/01/24 15:35:50;;;;;;;49.15;40.63;;;;;;;;;;5155259;27;20043;-79
2022/01/24 15:38:17;;;;;;;47.83;39.78;;;;;;;;;;5155090;27;20104;-78
2022/01/24 15:40:43;;;;;;;53.05;42.42;;;;;;;;;;5155220;27;20042;-79
2022/01/24 15:46:12;;;;;;;49.55;42.53;;;;;;;;;;5154804;27;20480;-79
2022/01/24 15:48:38;;;;;;;45.53;40.60;;;;;;;;;;5155195;27;20046;-79
2022/01/24 15:51:11;;;;;;;45.45;39.58;;;;;;;;;;5155016;27;20602;-80
2022/01/24 15:53:37;;;;;;;44.60;38.97;;;;;;;;;;5154814;27;20479;-79
2022/01/24 15:58:39;;;;;;;43.33;38.50;;;;;;;;;;5154906;27;20121;-80
2022/01/24 16:01:05;;;;;;;42.85;38.15;;;;;;;;;;5154713;27;20043;-80
2022/01/24 16:03:31;;;;;;;44.70;39.90;;;;;;;;;;5135970;27;20126;-79
2022/01/24 16:05:57;;;;;;;46.60;39.40;;;;;;;;;;5136157;27;20042;-79
2022/01/24 16:08:23;;;;;;;55.22;48.25;;;;;;;;;;5136277;27;20042;-79
2022/01/24 16:10:50;;;;;;;52.15;43.90;;;;;;;;;;5119252;27;20540;-79
2022/01/24 16:13:19;;;;;;;48.92;42.03;;;;;;;;;;5136250;27;20372;-79
2022/01/24 16:15:45;;;;;;;50.90;42.50;;;;;;;;;;5154383;27;20054;-79
2022/01/24 16:18:14;;;;;;;49.45;41.40;;;;;;;;;;5154356;27;20082;-78
2022/01/24 16:21:13;;;;;;;51.55;42.90;;;;;;;;;;5154031;27;20057;-80
2022/01/24 16:23:54;;;;;;;51.88;42.05;;;;;;;;;;5154546;27;20038;-80
2022/01/24 16:26:20;;;;;;;52.67;41.47;;;;;;;;;;5154188;27;20053;-80
2022/01/24 16:28:46;;;;;;;50.65;42.75;;;;;;;;;;5135990;27;21027;-79
2022/01/24 16:31:14;;;;;;;47.78;40.28;;;;;;;;;;5135976;27;20054;-79
2022/01/24 16:33:40;;;;;;;46.40;39.17;;;;;;;;;;5154454;27;20038;-79
2022/01/24 16:36:07;;;;;;;45.60;38.53;;;;;;;;;;5154683;27;20130;-79